sensor_id;sensor_type;location;lat;lon;timestamp;P1;durP1;ratioP1;P2;durP2;ratioP2
22871;SDS011;11603;44.910;8.630;2023-02-01T00:02:15;38.30;;;25.38;;
22871;SDS011;11603;44.910;8.630;2023-02-01T00:04:40;37.15;;;24.73;;
22871;SDS011;11603;44.910;8.630;2023-02-01T00:07:06;36.42;;;23.15;;
22871;SDS011;11603;44.910;8.630;2023-02-01T00:09:32;40.05;;;25.52;;
22871;SDS011;11603;44.910;8.630;2023-02-01T00:11:57;38.30;;;24.42;;
22871;SDS011;11603;44.910;8.630;2023-02-01T00:14:24;41.53;;;24.90;;
22871;SDS011;11603;44.910;8.630;2023-02-01T00:16:50;37.80;;;25.08;;
22871;SDS011;11603;44.910;8.630;2023-02-01T00:19:15;42.00;;;26.70;;
22871;SDS011;11603;44.910;8.630;2023-02-01T00:21:41;39.20;;;25.73;;
22871;SDS011;11603;44.910;8.630;2023-02-01T00:24:09;45.90;;;27.35;;
22871;SDS011;11603;44.910;8.630;2023-02-01T00:26:39;47.08;;;27.23;;
22871;SDS011;11603;44.910;8.630;2023-02-01T00:29:13;42.33;;;26.38;;
22871;SDS011;11603;44.910;8.630;2023-02-01T00:31:44;52.38;;;29.38;;
22871;SDS011;11603;44.910;8.630;2023-02-01T00:34:11;50.50;;;32.38;;
22871;SDS011;11603;44.910;8.630;2023-02-01T00:36:38;51.70;;;31.63;;
22871;SDS011;11603;44.910;8.630;2023-02-01T00:39:04;61.83;;;33.03;;
22871;SDS011;11603;44.910;8.630;2023-02-01T00:41:29;61.28;;;35.13;;
22871;SDS011;11603;44.910;8.630;2023-02-01T00:43:56;52.67;;;30.90;;
22871;SDS011;11603;44.910;8.630;2023-02-01T00:46:21;44.40;;;29.70;;
22871;SDS011;11603;44.910;8.630;2023-02-01T00:48:47;49.72;;;29.85;;
22871;SDS011;11603;44.910;8.630;2023-02-01T00:51:15;46.83;;;30.40;;
22871;SDS011;11603;44.910;8.630;2023-02-01T00:53:43;46.08;;;30.40;;
22871;SDS011;11603;44.910;8.630;2023-02-01T00:56:08;52.45;;;30.40;;
22871;SDS011;11603;44.910;8.630;2023-02-01T00:58:34;44.67;;;29.90;;
22871;SDS011;11603;44.910;8.630;2023-02-01T01:01:01;50.40;;;30.58;;
22871;SDS011;11603;44.910;8.630;2023-02-01T01:03:33;45.58;;;31.65;;
22871;SDS011;11603;44.910;8.630;2023-02-01T01:06:01;47.95;;;29.20;;
22871;SDS011;11603;44.910;8.630;2023-02-01T01:08:28;50.40;;;30.63;;
22871;SDS011;11603;44.910;8.630;2023-02-01T01:10:54;55.97;;;32.15;;
22871;SDS011;11603;44.910;8.630;2023-02-01T01:13:20;52.45;;;32.90;;
22871;SDS011;11603;44.910;8.630;2023-02-01T01:15:48;53.60;;;31.73;;
22871;SDS011;11603;44.910;8.630;2023-02-01T01:18:13;52.95;;;32.88;;
22871;SDS011;11603;44.910;8.630;2023-02-01T01:20:39;50.83;;;32.13;;
22871;SDS011;11603;44.910;8.630;2023-02-01T01:23:06;55.47;;;32.90;;
22871;SDS011;11603;44.910;8.630;2023-02-01T01:25:37;51.45;;;31.58;;
22871;SDS011;11603;44.910;8.630;2023-02-01T01:28:04;51.58;;;32.90;;
22871;SDS011;11603;44.910;8.630;2023-02-01T01:30:31;51.75;;;32.63;;
22871;SDS011;11603;44.910;8.630;2023-02-01T01:32:56;47.45;;;30.58;;
22871;SDS011;11603;44.910;8.630;2023-02-01T01:35:22;48.72;;;30.80;;
22871;SDS011;11603;44.910;8.630;2023-02-01T01:37:47;51.05;;;31.58;;
22871;SDS011;11603;44.910;8.630;2023-02-01T01:40:13;50.67;;;31.38;;
22871;SDS011;11603;44.910;8.630;2023-02-01T01:42:40;52.00;;;31.48;;
22871;SDS011;11603;44.910;8.630;2023-02-01T01:47:46;47.40;;;30.27;;
22871;SDS011;11603;44.910;8.630;2023-02-01T01:50:19;52.90;;;32.63;;
22871;SDS011;11603;44.910;8.630;2023-02-01T01:52:49;47.85;;;30.48;;
22871;SDS011;11603;44.910;8.630;2023-02-01T01:55:17;51.72;;;31.13;;
22871;SDS011;11603;44.910;8.630;2023-02-01T01:57:46;52.58;;;31.25;;
22871;SDS011;11603;44.910;8.630;2023-02-01T02:00:18;52.92;;;32.65;;
22871;SDS011;11603;44.910;8.630;2023-02-01T02:02:46;50.35;;;32.22;;
22871;SDS011;11603;44.910;8.630;2023-02-01T02:05:17;50.08;;;31.48;;
22871;SDS011;11603;44.910;8.630;2023-02-01T02:07:45;49.25;;;30.98;;
22871;SDS011;11603;44.910;8.630;2023-02-01T02:10:14;47.10;;;32.00;;
22871;SDS011;11603;44.910;8.630;2023-02-01T02:12:41;52.08;;;32.40;;
22871;SDS011;11603;44.910;8.630;2023-02-01T02:15:09;50.33;;;30.48;;
22871;SDS011;11603;44.910;8.630;2023-02-01T02:31:26;51.20;;;31.15;;
22871;SDS011;11603;44.910;8.630;2023-02-01T02:39:58;50.80;;;31.33;;
22871;SDS011;11603;44.910;8.630;2023-02-01T02:45:41;57.53;;;32.28;;
22871;SDS011;11603;44.910;8.630;2023-02-01T02:48:35;47.65;;;32.13;;
22871;SDS011;11603;44.910;8.630;2023-02-01T02:51:15;49.10;;;31.55;;
22871;SDS011;11603;44.910;8.630;2023-02-01T02:54:17;51.33;;;31.13;;
22871;SDS011;11603;44.910;8.630;2023-02-01T02:57:06;51.25;;;31.58;;
22871;SDS011;11603;44.910;8.630;2023-02-01T02:59:57;51.88;;;30.90;;
22871;SDS011;11603;44.910;8.630;2023-02-01T03:02:45;50.75;;;30.63;;
22871;SDS011;11603;44.910;8.630;2023-02-01T03:05:32;50.65;;;30.85;;
22871;SDS011;11603;44.910;8.630;2023-02-01T03:08:09;54.92;;;31.25;;
22871;SDS011;11603;44.910;8.630;2023-02-01T03:18:39;48.90;;;31.20;;
22871;SDS011;11603;44.910;8.630;2023-02-01T03:21:12;45.75;;;28.88;;
22871;SDS011;11603;44.910;8.630;2023-02-01T03:23:44;49.08;;;29.23;;
22871;SDS011;11603;44.910;8.630;2023-02-01T03:26:13;50.42;;;29.33;;
22871;SDS011;11603;44.910;8.630;2023-02-01T03:28:45;47.97;;;29.50;;
22871;SDS011;11603;44.910;8.630;2023-02-01T03:31:19;47.35;;;29.83;;
22871;SDS011;11603;44.910;8.630;2023-02-01T03:33:45;46.28;;;29.35;;
22871;SDS011;11603;44.910;8.630;2023-02-01T03:36:17;49.88;;;29.60;;
22871;SDS011;11603;44.910;8.630;2023-02-01T03:46:56;51.47;;;31.40;;
22871;SDS011;11603;44.910;8.630;2023-02-01T03:49:29;54.08;;;31.88;;
22871;SDS011;11603;44.910;8.630;2023-02-01T03:52:03;48.75;;;32.03;;
22871;SDS011;11603;44.910;8.630;2023-02-01T03:54:32;55.90;;;33.25;;
22871;SDS011;11603;44.910;8.630;2023-02-01T03:56:59;59.45;;;33.83;;
22871;SDS011;11603;44.910;8.630;2023-02-01T03:59:30;57.53;;;33.85;;
22871;SDS011;11603;44.910;8.630;2023-02-01T04:01:56;58.47;;;33.83;;
22871;SDS011;11603;44.910;8.630;2023-02-01T04:04:21;58.63;;;33.60;;
22871;SDS011;11603;44.910;8.630;2023-02-01T04:06:51;60.80;;;34.35;;
22871;SDS011;11603;44.910;8.630;2023-02-01T04:09:17;57.38;;;34.70;;
22871;SDS011;11603;44.910;8.630;2023-02-01T04:11:43;57.72;;;35.88;;
22871;SDS011;11603;44.910;8.630;2023-02-01T04:14:09;60.63;;;35.80;;
22871;SDS011;11603;44.910;8.630;2023-02-01T04:16:34;55.85;;;34.47;;
22871;SDS011;11603;44.910;8.630;2023-02-01T04:19:01;58.15;;;34.40;;
22871;SDS011;11603;44.910;8.630;2023-02-01T04:21:27;61.13;;;35.65;;
22871;SDS011;11603;44.910;8.630;2023-02-01T04:23:52;57.05;;;33.03;;
22871;SDS011;11603;44.910;8.630;2023-02-01T04:26:18;55.28;;;33.97;;
22871;SDS011;11603;44.910;8.630;2023-02-01T04:28:45;62.35;;;35.53;;
22871;SDS011;11603;44.910;8.630;2023-02-01T04:31:14;57.55;;;36.63;;
22871;SDS011;11603;44.910;8.630;2023-02-01T04:33:41;60.92;;;36.45;;
22871;SDS011;11603;44.910;8.630;2023-02-01T04:36:06;60.92;;;35.03;;
22871;SDS011;11603;44.910;8.630;2023-02-01T04:38:32;59.33;;;36.28;;
22871;SDS011;11603;44.910;8.630;2023-02-01T04:40:58;58.67;;;36.20;;
22871;SDS011;11603;44.910;8.630;2023-02-01T04:43:24;60.35;;;37.15;;
22871;SDS011;11603;44.910;8.630;2023-02-01T04:45:50;61.80;;;36.05;;
22871;SDS011;11603;44.910;8.630;2023-02-01T04:48:16;60.00;;;36.72;;
22871;SDS011;11603;44.910;8.630;2023-02-01T04:50:43;60.17;;;35.97;;
22871;SDS011;11603;44.910;8.630;2023-02-01T04:53:12;63.30;;;35.70;;
22871;SDS011;11603;44.910;8.630;2023-02-01T04:55:41;59.38;;;35.75;;
22871;SDS011;11603;44.910;8.630;2023-02-01T04:58:07;60.15;;;36.00;;
22871;SDS011;11603;44.910;8.630;2023-02-01T05:00:33;58.60;;;36.90;;
22871;SDS011;11603;44.910;8.630;2023-02-01T05:02:59;57.33;;;35.90;;
22871;SDS011;11603;44.910;8.630;2023-02-01T05:05:25;68.40;;;36.63;;
22871;SDS011;11603;44.910;8.630;2023-02-01T05:07:51;58.35;;;36.17;;
22871;SDS011;11603;44.910;8.630;2023-02-01T05:10:17;58.80;;;36.22;;
22871;SDS011;11603;44.910;8.630;2023-02-01T05:12:43;60.05;;;37.17;;
22871;SDS011;11603;44.910;8.630;2023-02-01T05:15:28;65.63;;;38.17;;
22871;SDS011;11603;44.910;8.630;2023-02-01T05:17:54;63.92;;;39.10;;
22871;SDS011;11603;44.910;8.630;2023-02-01T05:20:19;62.53;;;37.03;;
22871;SDS011;11603;44.910;8.630;2023-02-01T05:22:45;61.05;;;37.47;;
22871;SDS011;11603;44.910;8.630;2023-02-01T05:25:10;64.63;;;36.95;;
22871;SDS011;11603;44.910;8.630;2023-02-01T05:27:36;66.15;;;38.30;;
22871;SDS011;11603;44.910;8.630;2023-02-01T05:30:03;64.57;;;38.38;;
22871;SDS011;11603;44.910;8.630;2023-02-01T05:32:29;61.15;;;37.10;;
22871;SDS011;11603;44.910;8.630;2023-02-01T05:34:54;65.18;;;37.55;;
22871;SDS011;11603;44.910;8.630;2023-02-01T05:37:20;63.97;;;37.85;;
22871;SDS011;11603;44.910;8.630;2023-02-01T05:39:45;60.58;;;38.72;;
22871;SDS011;11603;44.910;8.630;2023-02-01T05:42:11;62.28;;;39.50;;
22871;SDS011;11603;44.910;8.630;2023-02-01T05:44:36;63.83;;;37.35;;
22871;SDS011;11603;44.910;8.630;2023-02-01T05:47:02;63.42;;;38.55;;
22871;SDS011;11603;44.910;8.630;2023-02-01T05:49:27;61.35;;;38.13;;
22871;SDS011;11603;44.910;8.630;2023-02-01T05:51:53;62.08;;;38.33;;
22871;SDS011;11603;44.910;8.630;2023-02-01T05:54:18;66.88;;;38.75;;
22871;SDS011;11603;44.910;8.630;2023-02-01T05:56:44;61.30;;;37.92;;
22871;SDS011;11603;44.910;8.630;2023-02-01T05:59:09;59.80;;;37.83;;
22871;SDS011;11603;44.910;8.630;2023-02-01T06:01:35;63.50;;;38.63;;
22871;SDS011;11603;44.910;8.630;2023-02-01T06:04:01;64.15;;;39.03;;
22871;SDS011;11603;44.910;8.630;2023-02-01T06:06:26;62.42;;;38.75;;
22871;SDS011;11603;44.910;8.630;2023-02-01T06:08:52;65.47;;;39.05;;
22871;SDS011;11603;44.910;8.630;2023-02-01T06:11:18;63.22;;;38.20;;
22871;SDS011;11603;44.910;8.630;2023-02-01T06:13:43;60.95;;;38.47;;
22871;SDS011;11603;44.910;8.630;2023-02-01T06:16:08;62.95;;;38.33;;
22871;SDS011;11603;44.910;8.630;2023-02-01T06:18:34;61.75;;;36.28;;
22871;SDS011;11603;44.910;8.630;2023-02-01T06:21:00;64.65;;;38.35;;
22871;SDS011;11603;44.910;8.630;2023-02-01T06:23:27;63.65;;;36.63;;
22871;SDS011;11603;44.910;8.630;2023-02-01T06:25:57;65.40;;;38.03;;
22871;SDS011;11603;44.910;8.630;2023-02-01T06:28:28;63.92;;;37.80;;
22871;SDS011;11603;44.910;8.630;2023-02-01T06:30:55;64.45;;;38.70;;
22871;SDS011;11603;44.910;8.630;2023-02-01T06:33:21;60.53;;;37.58;;
22871;SDS011;11603;44.910;8.630;2023-02-01T06:35:46;62.17;;;37.47;;
22871;SDS011;11603;44.910;8.630;2023-02-01T06:38:12;66.35;;;37.25;;
22871;SDS011;11603;44.910;8.630;2023-02-01T06:40:38;62.58;;;37.92;;
22871;SDS011;11603;44.910;8.630;2023-02-01T06:43:06;60.33;;;37.20;;
22871;SDS011;11603;44.910;8.630;2023-02-01T06:45:31;64.18;;;39.30;;
22871;SDS011;11603;44.910;8.630;2023-02-01T06:47:58;68.05;;;38.97;;
22871;SDS011;11603;44.910;8.630;2023-02-01T06:50:25;64.28;;;38.15;;
22871;SDS011;11603;44.910;8.630;2023-02-01T06:52:52;64.47;;;38.90;;
22871;SDS011;11603;44.910;8.630;2023-02-01T06:55:17;64.53;;;38.45;;
22871;SDS011;11603;44.910;8.630;2023-02-01T06:57:43;64.63;;;38.65;;
22871;SDS011;11603;44.910;8.630;2023-02-01T07:00:09;64.28;;;38.42;;
22871;SDS011;11603;44.910;8.630;2023-02-01T07:02:35;69.13;;;39.63;;
22871;SDS011;11603;44.910;8.630;2023-02-01T07:05:01;61.67;;;37.60;;
22871;SDS011;11603;44.910;8.630;2023-02-01T07:07:27;62.85;;;37.05;;
22871;SDS011;11603;44.910;8.630;2023-02-01T07:09:52;65.35;;;37.67;;
22871;SDS011;11603;44.910;8.630;2023-02-01T07:12:18;64.38;;;37.58;;
22871;SDS011;11603;44.910;8.630;2023-02-01T07:14:44;60.42;;;37.03;;
22871;SDS011;11603;44.910;8.630;2023-02-01T07:17:09;59.50;;;36.35;;
22871;SDS011;11603;44.910;8.630;2023-02-01T07:19:35;64.53;;;36.55;;
22871;SDS011;11603;44.910;8.630;2023-02-01T07:22:00;60.78;;;37.15;;
22871;SDS011;11603;44.910;8.630;2023-02-01T07:24:27;60.10;;;35.65;;
22871;SDS011;11603;44.910;8.630;2023-02-01T07:26:53;60.63;;;36.20;;
22871;SDS011;11603;44.910;8.630;2023-02-01T07:29:18;58.60;;;34.80;;
22871;SDS011;11603;44.910;8.630;2023-02-01T07:31:44;58.40;;;34.97;;
22871;SDS011;11603;44.910;8.630;2023-02-01T07:34:10;59.03;;;36.20;;
22871;SDS011;11603;44.910;8.630;2023-02-01T07:36:35;56.15;;;35.50;;
22871;SDS011;11603;44.910;8.630;2023-02-01T07:39:02;57.25;;;34.63;;
22871;SDS011;11603;44.910;8.630;2023-02-01T07:41:28;55.22;;;34.85;;
22871;SDS011;11603;44.910;8.630;2023-02-01T07:43:54;55.65;;;33.45;;
22871;SDS011;11603;44.910;8.630;2023-02-01T07:46:19;55.53;;;32.78;;
22871;SDS011;11603;44.910;8.630;2023-02-01T07:48:47;57.70;;;34.13;;
22871;SDS011;11603;44.910;8.630;2023-02-01T07:51:13;53.22;;;33.25;;
22871;SDS011;11603;44.910;8.630;2023-02-01T07:53:41;55.58;;;33.45;;
22871;SDS011;11603;44.910;8.630;2023-02-01T07:56:17;58.10;;;34.40;;
22871;SDS011;11603;44.910;8.630;2023-02-01T07:58:50;48.45;;;31.48;;
22871;SDS011;11603;44.910;8.630;2023-02-01T08:01:18;52.67;;;31.58;;
22871;SDS011;11603;44.910;8.630;2023-02-01T08:03:52;51.80;;;32.45;;
22871;SDS011;11603;44.910;8.630;2023-02-01T08:06:25;50.80;;;32.50;;
22871;SDS011;11603;44.910;8.630;2023-02-01T08:08:51;53.03;;;31.92;;
22871;SDS011;11603;44.910;8.630;2023-02-01T08:11:18;58.15;;;32.28;;
22871;SDS011;11603;44.910;8.630;2023-02-01T08:13:44;53.53;;;32.60;;
22871;SDS011;11603;44.910;8.630;2023-02-01T08:16:11;53.60;;;32.35;;
22871;SDS011;11603;44.910;8.630;2023-02-01T08:18:38;48.50;;;31.60;;
22871;SDS011;11603;44.910;8.630;2023-02-01T08:21:08;50.05;;;31.02;;
22871;SDS011;11603;44.910;8.630;2023-02-01T08:23:39;54.35;;;31.70;;
22871;SDS011;11603;44.910;8.630;2023-02-01T08:28:36;46.80;;;30.40;;
22871;SDS011;11603;44.910;8.630;2023-02-01T08:31:04;50.80;;;31.17;;
22871;SDS011;11603;44.910;8.630;2023-02-01T08:33:31;56.08;;;30.85;;
22871;SDS011;11603;44.910;8.630;2023-02-01T08:35:57;48.95;;;29.27;;
22871;SDS011;11603;44.910;8.630;2023-02-01T08:38:22;52.05;;;30.67;;
22871;SDS011;11603;44.910;8.630;2023-02-01T08:40:48;51.10;;;30.55;;
22871;SDS011;11603;44.910;8.630;2023-02-01T08:43:13;55.75;;;31.50;;
22871;SDS011;11603;44.910;8.630;2023-02-01T08:45:39;47.83;;;29.92;;
22871;SDS011;11603;44.910;8.630;2023-02-01T08:48:04;47.20;;;30.27;;
22871;SDS011;11603;44.910;8.630;2023-02-01T08:50:30;53.10;;;30.90;;
22871;SDS011;11603;44.910;8.630;2023-02-01T08:52:55;52.65;;;29.98;;
22871;SDS011;11603;44.910;8.630;2023-02-01T08:55:21;48.72;;;29.75;;
22871;SDS011;11603;44.910;8.630;2023-02-01T08:57:46;47.80;;;29.50;;
22871;SDS011;11603;44.910;8.630;2023-02-01T09:00:13;45.58;;;29.98;;
22871;SDS011;11603;44.910;8.630;2023-02-01T09:02:40;45.20;;;28.95;;
22871;SDS011;11603;44.910;8.630;2023-02-01T09:05:06;51.22;;;30.15;;
22871;SDS011;11603;44.910;8.630;2023-02-01T09:07:32;46.47;;;30.25;;
22871;SDS011;11603;44.910;8.630;2023-02-01T09:09:58;46.33;;;30.20;;
22871;SDS011;11603;44.910;8.630;2023-02-01T09:12:26;46.65;;;30.00;;
22871;SDS011;11603;44.910;8.630;2023-02-01T09:14:54;47.90;;;29.88;;
22871;SDS011;11603;44.910;8.630;2023-02-01T09:17:25;41.60;;;28.20;;
22871;SDS011;11603;44.910;8.630;2023-02-01T09:19:51;47.80;;;29.73;;
22871;SDS011;11603;44.910;8.630;2023-02-01T09:22:16;45.38;;;30.02;;
22871;SDS011;11603;44.910;8.630;2023-02-01T09:24:42;58.20;;;28.60;;
22871;SDS011;11603;44.910;8.630;2023-02-01T09:27:07;44.47;;;29.70;;
22871;SDS011;11603;44.910;8.630;2023-02-01T09:29:33;44.67;;;29.10;;
22871;SDS011;11603;44.910;8.630;2023-02-01T09:31:58;45.65;;;29.23;;
22871;SDS011;11603;44.910;8.630;2023-02-01T09:34:24;46.70;;;29.63;;
22871;SDS011;11603;44.910;8.630;2023-02-01T09:36:50;47.38;;;29.85;;
22871;SDS011;11603;44.910;8.630;2023-02-01T09:39:15;45.40;;;28.83;;
22871;SDS011;11603;44.910;8.630;2023-02-01T09:41:43;45.80;;;29.85;;
22871;SDS011;11603;44.910;8.630;2023-02-01T09:46:57;39.38;;;27.65;;
22871;SDS011;11603;44.910;8.630;2023-02-01T09:49:29;42.72;;;28.17;;
22871;SDS011;11603;44.910;8.630;2023-02-01T09:51:57;42.67;;;28.58;;
22871;SDS011;11603;44.910;8.630;2023-02-01T09:54:26;44.38;;;27.65;;
22871;SDS011;11603;44.910;8.630;2023-02-01T10:02:04;42.72;;;27.95;;
22871;SDS011;11603;44.910;8.630;2023-02-01T10:04:35;48.47;;;28.20;;
22871;SDS011;11603;44.910;8.630;2023-02-01T10:26:18;38.70;;;25.60;;
22871;SDS011;11603;44.910;8.630;2023-02-01T10:28:57;36.47;;;24.85;;
22871;SDS011;11603;44.910;8.630;2023-02-01T10:31:25;37.63;;;24.70;;
22871;SDS011;11603;44.910;8.630;2023-02-01T10:33:57;40.97;;;27.17;;
22871;SDS011;11603;44.910;8.630;2023-02-01T10:36:30;42.03;;;25.08;;
22871;SDS011;11603;44.910;8.630;2023-02-01T10:39:01;44.47;;;25.02;;
22871;SDS011;11603;44.910;8.630;2023-02-01T10:41:36;39.70;;;25.17;;
22871;SDS011;11603;44.910;8.630;2023-02-01T10:44:05;44.33;;;24.02;;
22871;SDS011;11603;44.910;8.630;2023-02-01T10:46:36;42.08;;;25.40;;
22871;SDS011;11603;44.910;8.630;2023-02-01T10:49:02;38.53;;;22.67;;
22871;SDS011;11603;44.910;8.630;2023-02-01T10:54:31;33.08;;;22.88;;
22871;SDS011;11603;44.910;8.630;2023-02-01T10:56:59;34.75;;;22.10;;
22871;SDS011;11603;44.910;8.630;2023-02-01T10:59:25;35.85;;;23.63;;
22871;SDS011;11603;44.910;8.630;2023-02-01T11:01:58;32.38;;;20.38;;
22871;SDS011;11603;44.910;8.630;2023-02-01T11:04:26;33.88;;;20.90;;
22871;SDS011;11603;44.910;8.630;2023-02-01T11:09:32;37.63;;;21.33;;
22871;SDS011;11603;44.910;8.630;2023-02-01T11:12:04;35.55;;;21.67;;
22871;SDS011;11603;44.910;8.630;2023-02-01T11:14:39;46.80;;;23.13;;
22871;SDS011;11603;44.910;8.630;2023-02-01T11:17:17;35.47;;;20.92;;
22871;SDS011;11603;44.910;8.630;2023-02-01T11:20:00;36.60;;;21.20;;
22871;SDS011;11603;44.910;8.630;2023-02-01T11:22:28;34.70;;;21.05;;
22871;SDS011;11603;44.910;8.630;2023-02-01T11:24:55;41.08;;;20.88;;
22871;SDS011;11603;44.910;8.630;2023-02-01T11:27:22;37.67;;;20.90;;
22871;SDS011;11603;44.910;8.630;2023-02-01T11:29:50;36.53;;;21.25;;
22871;SDS011;11603;44.910;8.630;2023-02-01T11:32:19;35.05;;;21.00;;
22871;SDS011;11603;44.910;8.630;2023-02-01T11:34:51;39.88;;;21.25;;
22871;SDS011;11603;44.910;8.630;2023-02-01T11:39:55;34.70;;;21.20;;
22871;SDS011;11603;44.910;8.630;2023-02-01T11:42:22;35.05;;;20.65;;
22871;SDS011;11603;44.910;8.630;2023-02-01T11:44:48;30.55;;;19.50;;
22871;SDS011;11603;44.910;8.630;2023-02-01T11:47:30;29.98;;;17.75;;
22871;SDS011;11603;44.910;8.630;2023-02-01T11:50:05;30.83;;;18.00;;
22871;SDS011;11603;44.910;8.630;2023-02-01T11:55:29;29.88;;;15.95;;
22871;SDS011;11603;44.910;8.630;2023-02-01T12:07:14;26.90;;;15.82;;
22871;SDS011;11603;44.910;8.630;2023-02-01T12:09:58;27.55;;;17.80;;
22871;SDS011;11603;44.910;8.630;2023-02-01T12:12:36;31.55;;;19.20;;
22871;SDS011;11603;44.910;8.630;2023-02-01T12:20:28;29.58;;;17.85;;
22871;SDS011;11603;44.910;8.630;2023-02-01T12:28:36;33.00;;;17.92;;
22871;SDS011;11603;44.910;8.630;2023-02-01T12:37:31;22.98;;;14.70;;
22871;SDS011;11603;44.910;8.630;2023-02-01T12:42:48;26.08;;;14.98;;
22871;SDS011;11603;44.910;8.630;2023-02-01T12:45:30;24.45;;;14.80;;
22871;SDS011;11603;44.910;8.630;2023-02-01T12:48:03;29.67;;;13.18;;
22871;SDS011;11603;44.910;8.630;2023-02-01T12:50:37;17.63;;;11.18;;
22871;SDS011;11603;44.910;8.630;2023-02-01T12:53:08;18.20;;;12.23;;
22871;SDS011;11603;44.910;8.630;2023-02-01T12:55:47;17.63;;;10.32;;
22871;SDS011;11603;44.910;8.630;2023-02-01T12:58:30;18.60;;;11.25;;
22871;SDS011;11603;44.910;8.630;2023-02-01T13:01:09;17.85;;;10.70;;
22871;SDS011;11603;44.910;8.630;2023-02-01T13:03:54;22.48;;;10.32;;
22871;SDS011;11603;44.910;8.630;2023-02-01T13:06:26;17.30;;;9.70;;
22871;SDS011;11603;44.910;8.630;2023-02-01T13:11:53;14.93;;;8.82;;
22871;SDS011;11603;44.910;8.630;2023-02-01T13:17:05;14.90;;;8.85;;
22871;SDS011;11603;44.910;8.630;2023-02-01T13:22:17;15.70;;;8.10;;
22871;SDS011;11603;44.910;8.630;2023-02-01T13:24:52;17.67;;;8.32;;
22871;SDS011;11603;44.910;8.630;2023-02-01T13:27:22;17.95;;;7.95;;
22871;SDS011;11603;44.910;8.630;2023-02-01T13:29:52;18.58;;;7.65;;
22871;SDS011;11603;44.910;8.630;2023-02-01T13:32:26;20.58;;;6.43;;
22871;SDS011;11603;44.910;8.630;2023-02-01T13:43:07;10.45;;;2.80;;
22871;SDS011;11603;44.910;8.630;2023-02-01T13:45:42;7.50;;;2.22;;
22871;SDS011;11603;44.910;8.630;2023-02-01T13:48:17;8.35;;;2.47;;
22871;SDS011;11603;44.910;8.630;2023-02-01T13:50:49;8.40;;;2.08;;
22871;SDS011;11603;44.910;8.630;2023-02-01T13:53:20;7.68;;;2.45;;
22871;SDS011;11603;44.910;8.630;2023-02-01T13:55:57;6.05;;;2.15;;
22871;SDS011;11603;44.910;8.630;2023-02-01T13:58:35;7.65;;;2.05;;
22871;SDS011;11603;44.910;8.630;2023-02-01T14:03:47;5.10;;;1.90;;
22871;SDS011;11603;44.910;8.630;2023-02-01T14:11:40;5.35;;;1.90;;
22871;SDS011;11603;44.910;8.630;2023-02-01T14:16:44;6.28;;;2.03;;
22871;SDS011;11603;44.910;8.630;2023-02-01T14:19:25;7.15;;;2.30;;
22871;SDS011;11603;44.910;8.630;2023-02-01T14:24:24;6.10;;;1.90;;
22871;SDS011;11603;44.910;8.630;2023-02-01T14:27:01;7.30;;;2.05;;
22871;SDS011;11603;44.910;8.630;2023-02-01T14:29:52;5.28;;;2.42;;
22871;SDS011;11603;44.910;8.630;2023-02-01T14:32:25;9.73;;;2.15;;
22871;SDS011;11603;44.910;8.630;2023-02-01T14:34:57;7.57;;;1.80;;
22871;SDS011;11603;44.910;8.630;2023-02-01T14:37:29;8.45;;;1.92;;
22871;SDS011;11603;44.910;8.630;2023-02-01T14:40:02;6.10;;;2.10;;
22871;SDS011;11603;44.910;8.630;2023-02-01T14:42:38;9.18;;;2.22;;
22871;SDS011;11603;44.910;8.630;2023-02-01T14:47:49;4.57;;;2.10;;
22871;SDS011;11603;44.910;8.630;2023-02-01T14:50:34;5.70;;;1.90;;
22871;SDS011;11603;44.910;8.630;2023-02-01T14:55:45;5.82;;;2.03;;
22871;SDS011;11603;44.910;8.630;2023-02-01T14:59:01;7.32;;;2.22;;
22871;SDS011;11603;44.910;8.630;2023-02-01T15:01:35;8.15;;;2.00;;
22871;SDS011;11603;44.910;8.630;2023-02-01T15:04:42;5.43;;;2.03;;
22871;SDS011;11603;44.910;8.630;2023-02-01T15:07:09;9.95;;;2.08;;
22871;SDS011;11603;44.910;8.630;2023-02-01T15:09:42;8.50;;;2.20;;
22871;SDS011;11603;44.910;8.630;2023-02-01T15:12:16;5.45;;;2.20;;
22871;SDS011;11603;44.910;8.630;2023-02-01T15:15:24;12.55;;;2.40;;
22871;SDS011;11603;44.910;8.630;2023-02-01T15:17:58;7.93;;;2.05;;
22871;SDS011;11603;44.910;8.630;2023-02-01T15:20:27;6.43;;;2.00;;
22871;SDS011;11603;44.910;8.630;2023-02-01T15:22:55;8.63;;;2.15;;
22871;SDS011;11603;44.910;8.630;2023-02-01T15:25:24;6.25;;;2.17;;
22871;SDS011;11603;44.910;8.630;2023-02-01T15:27:50;5.53;;;2.53;;
22871;SDS011;11603;44.910;8.630;2023-02-01T15:30:20;7.85;;;2.22;;
22871;SDS011;11603;44.910;8.630;2023-02-01T15:32:46;9.60;;;2.25;;
22871;SDS011;11603;44.910;8.630;2023-02-01T15:40:57;5.93;;;2.28;;
22871;SDS011;11603;44.910;8.630;2023-02-01T15:43:39;7.40;;;2.47;;
22871;SDS011;11603;44.910;8.630;2023-02-01T15:46:17;5.80;;;2.10;;
22871;SDS011;11603;44.910;8.630;2023-02-01T15:48:51;7.10;;;2.30;;
22871;SDS011;11603;44.910;8.630;2023-02-01T15:51:20;7.88;;;2.38;;
22871;SDS011;11603;44.910;8.630;2023-02-01T15:53:52;5.88;;;2.25;;
22871;SDS011;11603;44.910;8.630;2023-02-01T15:56:22;7.57;;;2.35;;
22871;SDS011;11603;44.910;8.630;2023-02-01T15:58:51;5.53;;;2.40;;
22871;SDS011;11603;44.910;8.630;2023-02-01T16:01:18;6.30;;;2.45;;
22871;SDS011;11603;44.910;8.630;2023-02-01T16:03:45;9.75;;;2.75;;
22871;SDS011;11603;44.910;8.630;2023-02-01T16:08:51;6.15;;;2.30;;
22871;SDS011;11603;44.910;8.630;2023-02-01T16:11:47;8.85;;;2.05;;
22871;SDS011;11603;44.910;8.630;2023-02-01T16:14:18;10.13;;;2.58;;
22871;SDS011;11603;44.910;8.630;2023-02-01T16:16:45;9.07;;;2.53;;
22871;SDS011;11603;44.910;8.630;2023-02-01T16:19:11;7.30;;;2.63;;
22871;SDS011;11603;44.910;8.630;2023-02-01T16:21:36;10.15;;;2.80;;
22871;SDS011;11603;44.910;8.630;2023-02-01T16:24:02;8.85;;;2.33;;
22871;SDS011;11603;44.910;8.630;2023-02-01T16:26:32;7.82;;;2.33;;
22871;SDS011;11603;44.910;8.630;2023-02-01T16:28:59;8.27;;;2.55;;
22871;SDS011;11603;44.910;8.630;2023-02-01T16:31:30;5.95;;;2.35;;
22871;SDS011;11603;44.910;8.630;2023-02-01T16:33:59;6.70;;;2.58;;
22871;SDS011;11603;44.910;8.630;2023-02-01T16:36:24;8.30;;;2.28;;
22871;SDS011;11603;44.910;8.630;2023-02-01T16:38:52;12.57;;;2.80;;
22871;SDS011;11603;44.910;8.630;2023-02-01T16:41:18;10.45;;;3.00;;
22871;SDS011;11603;44.910;8.630;2023-02-01T16:43:45;9.50;;;3.20;;
22871;SDS011;11603;44.910;8.630;2023-02-01T16:46:18;8.93;;;2.50;;
22871;SDS011;11603;44.910;8.630;2023-02-01T16:48:56;11.10;;;2.78;;
22871;SDS011;11603;44.910;8.630;2023-02-01T16:51:24;12.77;;;3.10;;
22871;SDS011;11603;44.910;8.630;2023-02-01T16:53:52;9.48;;;2.70;;
22871;SDS011;11603;44.910;8.630;2023-02-01T16:56:20;6.53;;;2.53;;
22871;SDS011;11603;44.910;8.630;2023-02-01T16:58:48;8.45;;;3.47;;
22871;SDS011;11603;44.910;8.630;2023-02-01T17:01:15;6.30;;;2.58;;
22871;SDS011;11603;44.910;8.630;2023-02-01T17:03:43;12.15;;;3.35;;
22871;SDS011;11603;44.910;8.630;2023-02-01T17:06:10;9.65;;;3.03;;
22871;SDS011;11603;44.910;8.630;2023-02-01T17:08:41;6.80;;;2.60;;
22871;SDS011;11603;44.910;8.630;2023-02-01T17:11:10;9.23;;;3.20;;
22871;SDS011;11603;44.910;8.630;2023-02-01T17:13:37;9.15;;;3.33;;
22871;SDS011;11603;44.910;8.630;2023-02-01T17:16:04;8.38;;;3.03;;